Date,TemperatureHighF,TemperatureAvgF,TemperatureLowF,DewpointHighF,DewpointAvgF,DewpointLowF,HumidityHigh,HumidityAvg,HumidityLow,PressureMaxIn,PressureMinIn,WindSpeedMaxMPH,WindSpeedAvgMPH,GustSpeedMaxMPH,PrecipitationSumIn
2013-1-1,40,35,29,-100,-100,-100,0,0,100,30.01,29.83,23,10,27,0.00
2013-1-2,34,13,24,-100,-100,-100,0,0,100,30.17,29.98,21,11,27,0.00
2013-1-3,33,11,27,-100,-100,-100,0,0,100,30.19,30.06,11,7,17,0.00
2013-1-4,37,29,30,-100,-100,-100,0,0,100,30.08,29.95,18,8,26,0.00
2013-1-5,43,36,32,-100,-100,-100,0,0,100,30.27,30.00,19,8,27,0.00
2013-1-6,47,39,33,-100,-100,-100,0,0,100,30.21,29.96,12,5,17,0.00
2013-1-7,45,40,34,-100,-100,-100,0,0,100,30.39,30.03,19,7,26,0.00
2013-1-8,49,35,31,-100,-100,-100,0,0,100,30.42,30.32,9,-10,17,0.00
2013-1-9,50,42,35,-100,-100,-100,0,0,100,30.38,30.11,11,-101,18,0.00
2013-1-10,48,44,41,-100,-100,-100,0,0,100,30.53,30.21,21,9,29,0.00
2013-1-11,46,42,38,-100,-100,-100,0,0,100,30.53,30.08,9,-17,10,0.00
2013-1-12,47,45,43,-100,-100,-100,0,0,100,30.16,30.05,12,-88,15,0.00
2013-1-13,48,45,43,-100,-100,-100,0,0,100,30.14,30.01,5,-56,8,0.00
2013-1-14,56,50,41,-100,-100,-100,0,0,100,30.27,30.00,19,10,22,0.00
2013-1-15,41,38,37,-100,-100,-100,0,0,100,30.34,30.21,15,9,19,0.00
2013-1-16,38,35,33,-100,-100,-100,0,0,100,30.21,29.79,21,7,26,0.00
2013-1-17,43,40,37,-100,-100,-100,0,0,100,30.08,29.89,16,8,19,0.00
2013-1-18,37,12,27,-100,-100,-100,0,0,100,30.48,29.99,25,11,30,0.00
2013-1-19,53,32,28,-100,-100,-100,0,0,100,30.40,29.92,14,7,25,0.00
2013-1-20,54,44,32,-100,-100,-100,0,0,100,30.03,29.68,27,12,40,0.00
2013-1-21,32,8,26,-100,-100,-100,0,0,100,30.09,29.83,19,6,24,0.00
2013-1-22,29,5,16,-100,-100,-100,0,0,100,30.20,29.83,21,15,35,0.00
2013-1-23,20,4,12,-100,-100,-100,0,0,100,30.25,30.16,16,10,23,0.00
2013-1-24,24,5,15,-100,-100,-100,0,0,100,30.40,30.12,29,14,37,0.00
2013-1-25,23,5,13,-100,-100,-100,0,0,100,30.42,30.06,18,7,25,0.00
2013-1-26,29,6,17,-100,-100,-100,0,0,100,30.37,30.04,23,11,30,0.00
2013-1-27,35,13,19,-100,-100,-100,0,0,100,30.52,30.37,15,8,21,0.00
2013-1-28,35,21,27,-100,-100,-100,0,0,100,30.48,30.00,10,4,14,0.00
2013-1-29,51,42,35,-100,-100,-100,0,0,100,30.14,29.99,11,-24,15,0.00
2013-1-30,66,51,39,-100,-100,-100,0,0,100,30.07,29.35,15,-30,30,0.00
2013-1-31,63,36,31,-100,-100,-100,0,0,100,29.78,29.27,29,19,47,0.00
2013-2-1,31,9,25,-100,-100,-100,0,0,100,30.22,29.78,24,12,32,0.00
2013-2-2,29,7,19,-100,-100,-100,0,0,100,30.30,30.06,16,8,26,0.00
2013-2-3,31,7,24,-100,-100,-100,0,0,100,30.05,29.78,11,-9,16,0.00
2013-2-4,29,7,24,-100,-100,-100,0,0,100,29.97,29.80,18,11,26,0.00
2013-2-5,33,10,27,-100,-100,-100,0,0,100,29.96,29.88,10,-3,13,0.00
2013-2-6,39,25,30,-100,-100,-100,0,0,100,30.35,29.91,19,9,25,0.00
2013-2-7,33,12,27,-100,-100,-100,0,0,100,30.49,30.32,11,6,14,0.00
2013-2-8,36,29,28,-100,-100,-100,0,0,100,30.32,29.62,23,14,34,0.00
2013-2-9,34,11,24,-100,-100,-100,0,0,100,30.33,29.73,29,17,39,0.00
2013-2-10,36,12,20,-100,-100,-100,0,0,100,30.48,30.31,14,5,18,0.00
2013-2-11,43,36,32,-100,-100,-100,0,0,100,30.32,29.65,8,-130,10,0.00
2013-2-12,44,41,37,-100,-100,-100,0,0,100,29.96,29.71,20,11,30,0.00
2013-2-13,43,33,30,-100,-100,-100,0,0,100,29.95,29.67,13,-24,17,0.00
2013-2-14,47,39,34,-100,-100,-100,0,0,100,29.99,29.69,13,-9,15,0.00
2013-2-15,54,43,34,-100,-100,-100,0,0,100,30.00,29.89,18,4,24,0.00
2013-2-16,42,36,32,-100,-100,-100,0,0,100,29.96,29.72,21,12,28,0.00
2013-2-17,32,7,20,-100,-100,-100,0,0,100,30.01,29.66,31,22,43,0.00
2013-2-18,35,16,19,-100,-100,-100,0,0,100,30.24,30.01,21,11,31,0.00
2013-2-19,50,33,31,-100,-100,-100,0,0,100,30.20,29.66,16,6,26,0.00
2013-2-20,40,14,27,-100,-100,-100,0,0,100,29.98,29.72,25,16,37,0.00
2013-2-21,34,13,25,-100,-100,-100,0,0,100,30.27,29.98,26,17,36,0.00
2013-2-22,39,22,26,-100,-100,-100,0,0,100,30.39,30.25,17,7,20,0.00
2013-2-23,45,40,37,-100,-100,-100,0,0,100,30.26,29.80,12,6,16,0.00
2013-2-24,46,39,35,-100,-100,-100,0,0,100,29.96,29.73,23,13,32,0.00
2013-2-25,43,38,33,-100,-100,-100,0,0,100,30.22,29.96,13,-7,17,0.00
2013-2-26,44,39,35,-100,-100,-100,0,0,100,30.27,29.87,16,-21,24,0.00
2013-2-27,49,43,38,-100,-100,-100,0,0,100,29.87,29.48,17,9,26,0.00
2013-2-28,48,44,39,-100,-100,-100,0,0,100,29.62,29.53,11,5,16,0.00
2013-3-1,44,40,36,-100,-100,-100,0,0,100,29.77,29.60,19,11,26,0.00
2013-3-2,39,34,31,-100,-100,-100,0,0,100,29.78,29.69,19,12,22,0.00
2013-3-3,38,20,30,-100,-100,-100,0,0,100,29.76,29.66,23,14,30,0.00
2013-3-4,40,26,29,-100,-100,-100,0,0,100,29.90,29.76,25,16,32,0.00
2013-3-5,47,39,33,-100,-100,-100,0,0,100,30.01,29.90,21,8,28,0.00
2013-3-6,42,40,39,-100,-100,-100,0,0,100,29.97,29.82,27,14,42,0.00
2013-3-7,39,37,34,-100,-100,-100,0,0,100,30.07,29.90,26,18,36,0.00
2013-3-8,42,28,31,-100,-100,-100,0,0,100,30.17,29.99,20,13,24,0.00
2013-3-9,54,44,35,-100,-100,-100,0,0,100,30.30,30.16,17,-12,20,0.00
2013-3-10,43,39,35,-100,-100,-100,0,0,100,30.38,30.30,11,-54,16,0.00
2013-3-11,51,45,38,-100,-100,-100,0,0,100,30.31,30.07,11,-9,18,0.00
2013-3-12,58,52,46,-100,-100,-100,0,0,100,30.08,29.65,20,10,25,0.00
2013-3-13,50,44,39,-100,-100,-100,0,0,100,29.88,29.78,16,8,25,0.00
2013-3-14,41,31,31,-100,-100,-100,0,0,100,29.96,29.83,28,17,41,0.00
2013-3-15,48,34,30,-100,-100,-100,0,0,100,29.98,29.70,22,11,32,0.00
2013-3-16,44,37,33,-100,-100,-100,0,0,100,29.90,29.76,17,7,22,0.00
2013-3-17,37,30,30,-100,-100,-100,0,0,100,30.28,29.90,18,12,24,0.00
2013-3-18,36,23,29,-100,-100,-100,0,0,100,30.39,30.01,13,8,21,0.00
2013-3-19,47,39,34,-100,-100,-100,0,0,100,30.01,29.69,17,2,23,0.00
2013-3-20,46,39,33,-100,-100,-100,0,0,100,29.88,29.77,21,4,32,0.00
2013-3-21,41,31,32,-100,-100,-100,0,0,100,29.83,29.62,19,12,24,0.00
2013-3-22,41,26,29,-100,-100,-100,0,0,100,29.87,29.73,21,11,28,0.00
2013-3-23,44,38,33,-100,-100,-100,0,0,100,29.93,29.81,26,14,33,0.00
2013-3-24,45,39,33,-100,-100,-100,0,0,100,29.94,29.69,22,8,26,0.00
2013-3-25,40,38,34,-100,-100,-100,0,0,100,29.71,29.45,16,8,24,0.00
2013-3-26,49,42,35,-100,-100,-100,0,0,100,29.85,29.57,16,7,22,0.00
2013-3-27,50,44,37,-100,-100,-100,0,0,100,29.97,29.85,21,11,30,0.00
2013-3-28,48,43,37,-100,-100,-100,0,0,100,30.09,29.96,23,11,31,0.00
2013-3-29,53,46,39,-100,-100,-100,0,0,100,30.14,30.04,20,8,24,0.00
2013-3-30,57,48,39,-100,-100,-100,0,0,100,30.16,30.04,14,-16,20,0.00
2013-3-31,54,46,39,-100,-100,-100,0,0,100,30.11,29.66,14,-8,23,0.00
2013-4-1,62,49,40,-100,-100,-100,0,0,100,29.89,29.60,25,10,38,0.00
2013-4-2,43,38,34,-100,-100,-100,0,0,100,30.07,29.89,23,13,31,0.00
2013-4-3,45,39,33,-100,-100,-100,0,0,100,30.29,30.06,25,13,35,0.00
2013-4-4,51,41,33,-100,-100,-100,0,0,100,30.38,30.09,21,7,28,0.00
2013-4-5,60,48,41,-100,-100,-100,0,0,100,30.09,29.69,31,-18,37,0.00
2013-4-6,52,42,37,-100,-100,-100,0,0,100,30.30,29.96,27,11,32,0.00
2013-4-7,59,48,38,-100,-100,-100,0,0,100,30.30,29.97,14,7,22,0.00
2013-4-8,70,57,49,-100,-100,-100,0,0,100,30.06,29.95,13,-31,18,0.00
2013-4-9,82,66,50,-100,-100,-100,0,0,100,29.98,29.88,19,-57,28,0.00
2013-4-10,73,62,54,-100,-100,-100,0,0,100,29.93,29.79,23,6,34,0.00
2013-4-11,60,54,48,-100,-100,-100,0,0,100,30.02,29.73,17,7,26,0.00
2013-4-12,49,44,42,-100,-100,-100,0,0,100,30.01,29.70,15,10,24,0.00
2013-4-13,58,49,42,-100,-100,-100,0,0,100,29.96,29.72,15,-1,19,0.00
2013-4-14,56,52,48,-100,-100,-100,0,0,100,30.19,29.95,21,8,27,0.00
2013-4-15,52,48,46,-100,-100,-100,0,0,100,30.36,30.19,11,6,17,0.00
2013-4-16,64,56,47,-100,-100,-100,0,0,100,30.36,30.09,14,7,23,0.00
2013-4-17,69,61,55,-100,-100,-100,0,0,100,30.27,30.09,15,-15,19,0.00
2013-4-18,56,53,51,-100,-100,-100,0,0,100,30.33,30.09,13,-15,21,0.00
2013-4-19,76,66,53,-100,-100,-100,0,0,100,30.09,29.63,17,8,27,0.00
2013-4-20,64,54,50,-100,-100,-100,0,0,100,30.26,29.64,23,13,35,0.00
2013-4-21,52,45,39,-100,-100,-100,0,0,100,30.60,30.25,25,10,29,0.00
2013-4-22,52,47,43,-100,-100,-100,0,0,100,30.64,30.47,15,8,24,0.00
2013-4-23,51,46,42,-100,-100,-100,0,0,100,30.47,30.10,15,11,18,0.00
2013-4-24,70,56,43,-100,-100,-100,0,0,100,30.10,29.80,11,6,18,0.00
2013-4-25,65,56,47,-100,-100,-100,0,0,100,30.24,29.84,26,10,35,0.00
2013-4-26,65,55,46,-100,-100,-100,0,0,100,30.38,30.24,13,-2,16,0.00
2013-4-27,68,57,49,-100,-100,-100,0,0,100,30.42,30.27,13,-1,17,0.00
2013-4-28,66,57,49,-100,-100,-100,0,0,100,30.30,30.18,14,5,21,0.00
2013-4-29,57,54,52,-100,-100,-100,0,0,100,30.22,30.16,9,5,16,0.00
2013-4-30,62,56,51,-100,-100,-100,0,0,100,30.32,30.19,11,5,18,0.00
2013-5-1,62,55,49,-100,-100,-100,0,0,100,30.47,30.31,12,-16,19,0.00
2013-5-2,67,57,47,-100,-100,-100,0,0,100,30.46,30.31,10,-31,14,0.00
2013-5-3,58,54,50,-100,-100,-100,0,0,100,30.44,30.33,11,6,17,0.00
2013-5-4,61,53,49,-100,-100,-100,0,0,100,30.37,30.24,13,-29,19,0.00
2013-5-5,55,50,47,-100,-100,-100,0,0,100,30.28,30.22,12,6,18,0.00
2013-5-6,62,54,47,-100,-100,-100,0,0,100,30.25,30.15,9,-10,13,0.00
2013-5-7,69,59,51,-100,-100,-100,0,0,100,30.16,30.07,11,-30,16,0.00
2013-5-8,64,60,57,-100,-100,-100,0,0,100,30.08,29.95,11,5,15,0.00
2013-5-9,68,60,56,-100,-100,-100,0,0,100,29.98,29.87,9,-52,13,0.00
2013-5-10,80,66,56,-100,-100,-100,0,0,100,29.98,29.86,11,4,16,0.00
2013-5-11,74,66,61,-100,-100,-100,0,0,100,29.88,29.68,14,-9,20,0.00
2013-5-12,67,61,53,-100,-100,-100,0,0,100,29.92,29.65,23,11,34,0.00
2013-5-13,55,51,46,-100,-100,-100,0,0,100,30.09,29.92,20,11,24,0.00
2013-5-14,61,52,44,-100,-100,-100,0,0,100,30.12,30.00,15,7,19,0.00
2013-5-15,75,60,49,-100,-100,-100,0,0,100,30.05,29.66,14,5,17,0.00
2013-5-16,82,66,62,-100,-100,-100,0,0,100,29.80,29.69,11,-38,20,0.00
2013-5-17,73,66,60,-100,-100,-100,0,0,100,30.18,29.80,19,8,23,0.00
2013-5-18,63,60,58,-100,-100,-100,0,0,100,30.29,30.18,7,-10,11,0.00
2013-5-19,59,57,56,-100,-100,-100,0,0,100,30.29,30.16,11,5,21,0.00
2013-5-20,80,68,58,-100,-100,-100,0,0,100,30.17,29.95,9,-73,15,0.00
2013-5-21,87,76,66,-100,-100,-100,0,0,100,29.96,29.82,13,-16,19,0.00
2013-5-22,78,69,60,-100,-100,-100,0,0,100,29.92,29.81,8,-4,11,0.00
2013-5-23,83,74,69,-100,-100,-100,0,0,100,29.87,29.74,14,6,24,0.00
2013-5-24,69,58,48,-100,-100,-100,0,0,100,29.94,29.66,22,11,30,0.00
2013-5-25,57,52,47,-100,-100,-100,0,0,100,30.00,29.89,37,18,49,0.00
2013-5-26,66,58,49,-100,-100,-100,0,0,100,30.19,29.96,27,16,37,0.00
2013-5-27,75,63,48,-100,-100,-100,0,0,100,30.24,30.11,11,-3,18,0.00
2013-5-28,68,60,56,-100,-100,-100,0,0,100,30.21,30.11,8,-4,11,0.00
2013-5-29,87,71,59,-100,-100,-100,0,0,100,30.12,29.98,8,-123,14,0.00
2013-5-30,92,82,72,-100,-100,-100,0,0,100,30.11,30.04,11,5,17,0.00
2013-5-31,94,84,73,-100,-100,-100,0,0,100,30.11,29.97,11,5,19,0.00
2013-6-1,92,82,72,-100,-100,-100,0,0,100,30.01,29.88,10,6,21,0.00
2013-6-2,90,81,72,-100,-100,-100,0,0,100,29.90,29.76,12,7,23,0.00
2013-6-3,76,72,68,-100,-100,-100,0,0,100,29.86,29.78,17,-23,21,0.00
2013-6-4,75,67,59,-100,-100,-100,0,0,100,30.09,29.85,23,13,30,0.00
2013-6-5,70,65,60,-100,-100,-100,0,0,100,30.19,30.09,14,7,18,0.00
2013-6-6,68,63,58,-100,-100,-100,0,0,100,30.13,29.99,12,-1,18,0.00
2013-6-7,64,62,60,-100,-100,-100,0,0,100,29.99,29.61,14,7,20,0.00
2013-6-8,77,68,59,-100,-100,-100,0,0,100,30.03,29.56,19,8,25,0.00
2013-6-9,82,73,62,-100,-100,-100,0,0,100,30.16,30.02,11,-68,16,0.00
2013-6-10,72,68,64,-100,-100,-100,0,0,100,30.14,29.81,14,-9,23,0.00
2013-6-11,81,74,66,-100,-100,-100,0,0,100,29.81,29.61,20,8,31,0.00
2013-6-12,75,71,66,-100,-100,-100,0,0,100,29.83,29.70,21,12,29,0.00
2013-6-13,70,65,59,-100,-100,-100,0,0,100,29.82,29.44,19,-22,27,0.00
2013-6-14,72,62,56,-100,-100,-100,0,0,100,29.87,29.48,22,11,28,0.00
2013-6-15,81,71,60,-100,-100,-100,0,0,100,30.00,29.87,11,5,19,0.00
2013-6-16,83,72,63,-100,-100,-100,0,0,100,29.98,29.77,13,-27,22,0.00
2013-6-17,86,76,68,-100,-100,-100,0,0,100,29.90,29.82,24,4,32,0.00
2013-6-18,81,71,66,-100,-100,-100,0,0,100,29.88,29.79,15,-23,18,0.00
2013-6-19,76,68,62,-100,-100,-100,0,0,100,30.14,29.85,17,-4,21,0.00
2013-6-20,79,68,60,-100,-100,-100,0,0,100,30.25,30.14,13,-6,16,0.00
2013-6-22,83,77,71,-100,-100,-100,0,0,100,30.24,30.11,11,7,18,0.00
2013-6-23,89,77,67,-100,-100,-100,0,0,100,30.18,30.04,14,5,22,0.00
2013-6-28,86,78,73,-100,-100,-100,0,0,100,29.55,29.46,11,6,16,0.00
2013-6-29,83,77,70,-100,-100,-100,0,0,100,29.68,29.47,12,5,16,0.00
2013-6-30,83,76,73,-100,-100,-100,0,0,100,29.89,29.68,11,4,16,0.00
2013-7-1,78,75,73,-100,-100,-100,0,0,100,30.03,29.88,9,4,15,0.00
2013-7-2,85,78,74,-100,-100,-100,0,0,100,30.17,30.03,11,5,20,0.00
2013-7-3,87,77,72,-100,-100,-100,0,0,100,30.23,30.15,8,4,15,0.00
2013-7-4,90,83,76,-100,-100,-100,0,0,100,30.24,30.14,12,5,20,0.00
2013-7-5,92,83,75,-100,-100,-100,0,0,100,30.20,30.07,11,5,16,0.00
2013-7-6,93,85,77,-100,-100,-100,0,0,100,30.12,30.01,13,6,18,0.00
2013-7-7,94,86,79,-100,-100,-100,0,0,100,30.05,29.91,13,-3,19,0.00
2013-7-8,89,78,72,-100,-100,-100,0,0,100,30.03,29.95,13,6,19,0.00
2013-7-9,90,81,73,-100,-100,-100,0,0,100,30.06,29.97,10,4,16,0.00
2013-7-10,87,79,74,-100,-100,-100,0,0,100,30.01,29.79,11,4,19,0.00
2013-7-11,85,80,77,-100,-100,-100,0,0,100,29.90,29.78,15,6,17,0.00
2013-7-12,78,74,70,-100,-100,-100,0,0,100,30.06,29.90,15,9,22,0.00
2013-7-13,82,75,70,-100,-100,-100,0,0,100,30.26,30.07,9,-16,14,0.00
2013-7-14,91,82,74,-100,-100,-100,0,0,100,30.32,30.22,10,-40,14,0.00
2013-7-15,92,83,77,-100,-100,-100,0,0,100,30.23,30.11,15,6,19,0.00
2013-7-16,91,86,78,-100,-100,-100,0,0,100,30.19,30.11,12,-7,15,0.00
2013-7-17,93,84,79,-100,-100,-100,0,0,100,30.17,30.04,8,-148,11,0.00
2013-7-18,97,88,80,-100,-100,-100,0,0,100,30.06,29.94,9,4,13,0.00
2013-7-19,97,90,82,-100,-100,-100,0,0,100,29.96,29.78,11,6,20,0.00
2013-7-20,93,84,77,-100,-100,-100,0,0,100,29.80,29.71,14,7,22,0.00
2013-7-21,85,79,76,-100,-100,-100,0,0,100,29.94,29.81,9,-12,14,0.00
2013-7-22,84,78,76,-100,-100,-100,0,0,100,29.93,29.79,10,4,15,0.00
2013-7-23,88,80,73,-100,-100,-100,0,0,100,29.79,29.55,10,6,20,0.00
2013-7-24,81,77,72,-100,-100,-100,0,0,100,29.89,29.60,18,9,24,0.00
2013-7-25,71,67,65,-100,-100,-100,0,0,100,30.03,29.90,20,12,23,0.00
2013-7-26,83,73,67,-100,-100,-100,0,0,100,30.02,29.97,14,7,19,0.00
2013-7-27,83,75,67,-100,-100,-100,0,0,100,30.04,29.94,14,6,21,0.00
2013-7-28,78,73,69,-100,-100,-100,0,0,100,29.97,29.90,11,-3,18,0.00
2013-7-29,85,74,69,-100,-100,-100,0,0,100,30.08,29.93,11,4,16,0.00
2013-7-30,79,74,67,-100,-100,-100,0,0,100,30.15,30.09,12,-9,17,0.00
2013-7-31,80,74,65,-100,-100,-100,0,0,100,30.14,30.02,10,-20,15,0.00
2013-8-1,74,71,68,-100,-100,-100,0,0,100,30.03,29.82,9,4,14,0.00
2013-8-2,84,75,68,-100,-100,-100,0,0,100,29.90,29.78,11,5,17,0.00
2013-8-3,78,73,70,-100,-100,-100,0,0,100,29.91,29.83,10,5,20,0.00
2013-8-4,78,73,68,-100,-100,-100,0,0,100,29.96,29.84,21,1,27,0.00
2013-8-5,78,70,63,-100,-100,-100,0,0,100,30.04,29.96,15,8,20,0.00
2013-8-6,79,71,64,-100,-100,-100,0,0,100,30.11,30.02,11,5,19,0.00
2013-8-7,78,73,70,-100,-100,-100,0,0,100,30.12,30.04,13,-5,19,0.00
2013-8-8,83,74,69,-100,-100,-100,0,0,100,30.06,29.98,10,4,16,0.00
2013-8-9,86,78,74,-100,-100,-100,0,0,100,30.00,29.79,12,6,20,0.00
2013-8-10,82,78,72,-100,-100,-100,0,0,100,30.03,29.84,13,8,17,0.00
2013-8-11,82,74,68,-100,-100,-100,0,0,100,30.11,30.01,12,6,16,0.00
2013-8-12,80,74,69,-100,-100,-100,0,0,100,30.03,29.92,8,-35,12,0.00
2013-8-13,76,64,70,-100,-100,-100,0,0,100,29.91,29.69,9,4,10,0.00
2013-8-14,73,57,63,-100,-100,-100,0,0,100,30.03,29.81,23,14,32,0.00
2013-8-15,74,13,58,-100,-100,-100,0,0,100,30.13,30.05,14,-114,17,0.00
2013-8-16,73,2,65,-100,-100,-100,0,0,100,30.18,30.11,9,-26,13,0.00
2013-8-17,80,5,64,-100,-100,-100,0,0,100,30.26,30.19,9,-64,13,0.00
2013-8-18,76,3,72,-100,-100,-100,0,0,100,30.25,30.12,6,-22,9,0.00
2013-8-19,77,1,77,-100,-100,-100,0,0,100,30.12,30.03,9,-13,13,0.00
2013-8-20,86,6,66,-100,-100,-100,0,0,100,30.12,30.03,8,-60,11,0.00
2013-8-21,83,2,72,-100,-100,-100,0,0,100,30.16,30.05,7,-24,16,0.00
2013-8-22,75,3,71,-100,-100,-100,0,0,100,30.05,29.87,8,-24,15,0.00
2013-8-23,79,5,72,-100,-100,-100,0,0,100,30.08,29.86,16,-54,19,0.00
2013-8-24,77,3,66,-100,-100,-100,0,0,100,30.32,30.08,15,-33,19,0.00
2013-8-25,81,3,62,-100,-100,-100,0,0,100,30.38,30.23,7,-36,15,0.00
2013-8-26,79,2,67,-100,-100,-100,0,0,100,30.23,29.91,12,-8,19,0.00
2013-8-27,79,5,72,-100,-100,-100,0,0,100,29.91,29.81,17,-64,21,0.00
2013-8-28,76,3,76,-100,-100,-100,0,0,100,29.87,29.83,9,-33,13,0.00
2013-8-29,-200,0,200,-100,-100,-100,0,0,100,30.01,29.86,9,4,12,0.00
2013-8-30,83,3,69,-100,-100,-100,0,0,100,30.02,29.85,12,-36,18,0.00
2013-8-31,86,2,75,-100,-100,-100,0,0,100,29.86,29.77,8,-22,13,0.00
2013-9-1,76,1,76,-100,-100,-100,0,0,100,29.85,29.77,9,-10,13,0.00
2013-9-2,76,2,76,-100,-100,-100,0,0,100,29.79,29.70,5,-31,9,0.00
2013-9-3,79,4,72,-100,-100,-100,0,0,100,29.87,29.70,17,-47,21,0.00
2013-9-4,79,4,66,-100,-100,-100,0,0,100,29.99,29.87,14,-44,18,0.00
2013-9-5,74,3,67,-100,-100,-100,0,0,100,30.13,29.92,20,-32,23,0.00
2013-9-6,69,3,61,-100,-100,-100,0,0,100,30.24,30.12,15,-35,20,0.00
2013-9-7,77,1,77,-100,-100,-100,0,0,100,30.12,29.90,8,4,14,0.00
2013-9-8,78,6,67,-100,-100,-100,0,0,100,30.05,29.81,21,-60,26,0.00
2013-9-9,68,4,63,-100,-100,-100,0,0,100,30.23,30.05,15,-44,19,0.00
2013-9-10,73,10,69,-100,-100,-100,0,0,100,30.15,30.12,7,-54,14,0.00
2013-9-11,85,3,77,-100,-100,-100,0,0,100,30.13,29.99,10,-12,18,0.00
2013-9-12,79,3,70,-100,-100,-100,0,0,100,30.02,29.71,11,-33,21,0.00
2013-9-13,68,1,68,-100,-100,-100,0,0,100,29.87,29.66,22,-3,28,0.00
2013-9-14,63,2,57,-100,-100,-100,0,0,100,30.14,29.87,17,-15,22,0.00
2013-9-15,68,1,68,-100,-100,-100,0,0,100,30.23,30.10,7,4,11,0.00
2013-9-16,65,4,60,-100,-100,-100,0,0,100,30.24,30.05,20,-59,25,0.00
2013-9-17,58,2,56,-100,-100,-100,0,0,100,30.45,30.28,21,-30,27,0.00
2013-9-18,54,2,54,-100,-100,-100,0,0,100,30.37,30.21,4,-29,6,0.00
2013-9-19,65,2,53,-100,-100,-100,0,0,100,30.21,30.09,8,-34,13,0.00
2013-9-20,73,2,60,-100,-100,-100,0,0,100,30.10,30.01,9,-34,14,0.00
2013-9-21,71,2,60,-100,-100,-100,0,0,100,30.03,29.68,16,-22,22,0.00
2013-9-22,64,2,63,-100,-100,-100,0,0,100,29.92,29.67,21,-16,26,0.00
2013-9-23,64,3,55,-100,-100,-100,0,0,100,30.06,29.92,18,-23,22,0.00
2013-9-24,73,2,52,-100,-100,-100,0,0,100,30.07,29.89,14,-33,18,0.00
2013-9-25,62,2,61,-100,-100,-100,0,0,100,29.98,29.88,12,-21,16,0.00
2013-9-26,59,2,57,-100,-100,-100,0,0,100,30.11,29.95,12,-21,15,0.00
2013-9-27,65,4,57,-100,-100,-100,0,0,100,30.28,30.11,11,-64,13,0.00
2013-9-28,70,2,59,-100,-100,-100,0,0,100,30.34,30.25,11,-33,14,0.00
2013-9-29,65,2,59,-100,-100,-100,0,0,100,30.25,30.10,9,-25,13,0.00
2013-9-30,64,2,59,-100,-100,-100,0,0,100,30.10,29.98,8,-9,11,0.00
2013-10-1,69,4,69,-100,-100,-100,0,0,100,30.02,29.93,6,-53,9,0.00
2013-10-2,79,4,60,-100,-100,-100,0,0,100,30.03,29.92,13,-47,18,0.00
2013-10-3,70,3,63,-100,-100,-100,0,0,100,30.14,30.02,6,-46,10,0.00
2013-10-4,84,5,65,-100,-100,-100,0,0,100,30.08,29.97,9,-60,14,0.00
2013-10-5,66,1,66,-100,-100,-100,0,0,100,30.11,30.02,9,-8,12,0.00
2013-10-6,69,4,65,-100,-100,-100,0,0,100,30.11,30.04,9,-48,14,0.00
2013-10-7,79,3,62,-100,-100,-100,0,0,100,30.04,29.78,16,-34,30,0.00
2013-10-8,65,2,58,-100,-100,-100,0,0,100,30.33,30.01,14,-6,16,0.00
2013-10-9,61,4,55,-100,-100,-100,0,0,100,30.40,30.30,14,-63,19,0.00
2013-10-10,59,2,56,-100,-100,-100,0,0,100,30.30,30.07,13,-22,19,0.00
2013-10-11,-200,0,200,-100,-100,-100,0,0,100,30.09,30.02,15,9,21,0.00
2013-10-12,67,2,62,-100,-100,-100,0,0,100,30.29,30.07,16,-29,20,0.00
2013-10-13,60,2,59,-100,-100,-100,0,0,100,30.39,30.28,13,-22,23,0.00
2013-10-14,59,3,55,-100,-100,-100,0,0,100,30.38,30.26,7,-27,11,0.00
2013-10-15,64,4,53,-100,-100,-100,0,0,100,30.27,30.14,8,-50,13,0.00
2013-10-16,65,3,58,-100,-100,-100,0,0,100,30.14,29.94,7,-44,9,0.00
2013-10-17,65,2,61,-100,-100,-100,0,0,100,29.93,29.71,8,-35,14,0.00
2013-10-18,66,3,56,-100,-100,-100,0,0,100,30.00,29.69,18,-37,23,0.00
2013-10-19,50,2,49,-100,-100,-100,0,0,100,30.00,29.76,10,-39,14,0.00
2013-10-20,57,2,52,-100,-100,-100,0,0,100,30.08,29.76,15,-31,22,0.00
2013-10-21,62,3,47,-100,-100,-100,0,0,100,30.17,30.00,10,-50,17,0.00
2013-10-22,61,5,52,-100,-100,-100,0,0,100,30.00,29.77,12,-91,18,0.00
2013-10-23,54,5,49,-100,-100,-100,0,0,100,29.84,29.63,22,-86,25,0.00
2013-10-24,49,4,41,-100,-100,-100,0,0,100,30.03,29.78,16,-88,24,0.00
2013-10-25,53,2,48,-100,-100,-100,0,0,100,30.25,30.03,22,-39,25,0.00
2013-10-26,55,3,37,-100,-100,-100,0,0,100,30.24,29.92,11,-59,27,0.00
2013-10-27,54,2,45,-100,-100,-100,0,0,100,30.14,29.87,15,-30,22,0.00
2013-10-28,60,3,46,-100,-100,-100,0,0,100,30.31,30.14,13,-28,19,0.00
2013-10-29,52,2,46,-100,-100,-100,0,0,100,30.43,30.32,13,-36,14,0.00
2013-10-30,47,1,47,-100,-100,-100,0,0,100,30.37,30.19,7,-24,12,0.00
2013-10-31,66,3,54,-100,-100,-100,0,0,100,30.24,29.83,13,-35,21,0.00
2013-11-1,70,6,62,-100,-100,-100,0,0,100,29.83,29.57,14,-63,29,0.00
2013-11-2,66,4,55,-100,-100,-100,0,0,100,29.80,29.63,11,-59,16,0.00
2013-11-3,48,1,46,-100,-100,-100,0,0,100,30.47,29.79,23,-10,28,0.00
2013-11-4,44,4,36,-100,-100,-100,0,0,100,30.67,30.46,17,-91,24,0.00
2013-11-5,42,1,42,-100,-100,-100,0,0,100,30.66,30.49,8,-10,13,0.00
2013-11-6,60,3,46,-100,-100,-100,0,0,100,30.51,30.08,8,-49,15,0.00
2013-11-7,61,2,49,-100,-100,-100,0,0,100,30.08,29.77,25,-5,31,0.00
2013-11-8,-200,0,200,-100,-100,-100,0,0,100,30.24,29.96,20,11,28,0.00
2013-11-9,48,4,37,-100,-100,-100,0,0,100,30.31,30.01,9,-87,14,0.00
2013-11-10,51,2,51,-100,-100,-100,0,0,100,30.07,29.83,23,-25,32,0.00
2013-11-11,51,2,45,-100,-100,-100,0,0,100,30.23,29.98,19,-41,23,0.00
2013-11-12,51,1,35,-100,-100,-100,0,0,100,30.32,29.95,26,-13,33,0.00
2013-11-13,31,0,31,-100,-100,-100,0,0,100,30.39,30.30,20,-3,25,0.00
2013-11-14,52,2,47,-100,-100,-100,0,0,100,30.30,30.18,15,-35,27,0.00
2013-11-15,54,1,51,-100,-100,-100,0,0,100,30.27,30.17,7,-22,10,0.00
2013-11-16,50,1,48,-100,-100,-100,0,0,100,30.35,30.24,8,-22,12,0.00
2013-11-17,58,2,50,-100,-100,-100,0,0,100,30.29,29.81,8,-40,11,0.00
2013-11-18,61,1,61,-100,-100,-100,0,0,100,29.81,29.61,21,-6,31,0.00
2013-11-19,49,2,44,-100,-100,-100,0,0,100,30.35,29.80,27,-31,36,0.00
2013-11-20,40,1,36,-100,-100,-100,0,0,100,30.62,30.37,19,-15,24,0.00
2013-11-21,50,1,35,-100,-100,-100,0,0,100,30.63,30.41,9,-31,13,0.00
2013-11-22,49,0,49,-100,-100,-100,0,0,100,30.41,29.92,9,-7,16,0.00
2013-11-23,53,2,44,-100,-100,-100,0,0,100,30.06,29.92,26,-12,35,0.00
2013-11-24,29,2,25,-100,-100,-100,0,0,100,30.40,30.03,30,-45,42,0.00
2013-11-25,35,2,23,-100,-100,-100,0,0,100,30.51,30.36,12,-53,20,0.00
2013-11-26,43,1,40,-100,-100,-100,0,0,100,30.36,29.80,12,-24,21,0.00
2013-11-27,59,2,47,-100,-100,-100,0,0,100,29.80,29.36,21,-17,32,0.00
2013-11-28,35,1,35,-100,-100,-100,0,0,100,30.49,29.75,25,-2,36,0.00
2013-11-29,37,1,31,-100,-100,-100,0,0,100,30.75,30.49,16,-20,20,0.00
2013-11-30,38,2,27,-100,-100,-100,0,0,100,30.77,30.40,12,-76,18,0.00
2013-12-1,47,4,37,-100,-100,-100,0,0,100,30.38,30.03,9,-97,10,0.00
2013-12-2,-200,0,200,-100,-100,-100,0,0,100,30.03,29.89,5,3,8,0.00
2013-12-3,43,2,40,-100,-100,-100,0,0,100,30.02,29.89,8,-32,11,0.00
2013-12-4,49,3,41,-100,-100,-100,0,0,100,30.14,30.03,6,-58,7,0.00
2013-12-5,58,3,48,-100,-100,-100,0,0,100,30.13,29.95,6,-62,10,0.00
2013-12-6,56,1,37,-100,-100,-100,0,0,100,30.16,29.87,20,-14,30,0.00
2013-12-7,37,1,33,-100,-100,-100,0,0,100,30.53,30.11,20,-23,25,0.00
2013-12-8,33,2,29,-100,-100,-100,0,0,100,30.61,30.40,15,-69,19,0.00
2013-12-9,38,0,38,-100,-100,-100,0,0,100,30.38,29.98,14,-6,19,0.00
2013-12-10,34,1,31,-100,-100,-100,0,0,100,30.15,29.90,12,-31,20,0.00
2013-12-11,32,2,26,-100,-100,-100,0,0,100,30.36,30.16,13,-44,22,0.00
2013-12-12,28,1,25,-100,-100,-100,0,0,100,30.38,30.21,21,-28,25,0.00
2013-12-13,32,2,21,-100,-100,-100,0,0,100,30.34,30.16,15,-48,23,0.00
2013-12-14,32,1,27,-100,-100,-100,0,0,100,30.51,29.79,16,-16,21,0.00
2013-12-15,37,1,36,-100,-100,-100,0,0,100,29.87,29.51,17,-15,23,0.00
2013-12-16,30,1,27,-100,-100,-100,0,0,100,30.25,29.86,19,-33,25,0.00
2013-12-17,29,1,26,-100,-100,-100,0,0,100,30.25,29.94,13,-32,16,0.00
2013-12-18,34,1,27,-100,-100,-100,0,0,100,30.19,29.94,16,-28,22,0.00
2013-12-19,44,1,27,-100,-100,-100,0,0,100,30.21,30.05,10,-39,15,0.00
2013-12-20,49,1,49,-100,-100,-100,0,0,100,30.13,29.99,6,-27,11,0.00
2013-12-21,64,5,46,-100,-100,-100,0,0,100,30.02,29.91,9,-73,14,0.00
2013-12-22,67,2,64,-100,-100,-100,0,0,100,29.98,29.83,13,-18,23,0.00